createdAt,value
2022-12-26T00:00:52.147Z,71.7
2022-12-26T00:02:09.030Z,71.7
2022-12-26T00:03:25.231Z,71.7
2022-12-26T00:04:40.705Z,71.7
2022-12-26T00:05:57.591Z,71.7
2022-12-26T00:07:13.791Z,71.7
2022-12-26T00:08:29.277Z,71.7
2022-12-26T00:09:44.475Z,71.7
2022-12-26T00:11:00.395Z,71.7
2022-12-26T00:12:16.588Z,71.7
2022-12-26T00:13:31.086Z,71.7
2022-12-26T00:14:47.016Z,71.7
2022-12-26T00:16:02.481Z,71.7
2022-12-26T00:17:19.396Z,71.7
2022-12-26T00:18:34.863Z,71.7
2022-12-26T00:19:51.764Z,71.7
2022-12-26T00:21:07.242Z,71.7
2022-12-26T00:22:23.427Z,71.6
2022-12-26T00:23:39.615Z,71.6
2022-12-26T00:24:56.527Z,71.6
2022-12-26T00:26:12.716Z,71.6
2022-12-26T00:27:28.909Z,71.7
2022-12-26T00:28:44.367Z,71.7
2022-12-26T00:30:01.287Z,71.6
2022-12-26T00:31:15.771Z,71.7
2022-12-26T00:32:32.669Z,71.7
2022-12-26T00:33:48.146Z,71.7
2022-12-26T00:35:05.055Z,71.6
2022-12-26T00:36:20.530Z,71.6
2022-12-26T00:37:37.436Z,71.6
2022-12-26T00:38:52.910Z,71.6
2022-12-26T00:40:08.831Z,71.6
2022-12-26T00:41:23.323Z,71.6
2022-12-26T00:42:40.236Z,71.6
2022-12-26T00:43:56.426Z,71.6
2022-12-26T00:45:12.616Z,71.6
2022-12-26T00:46:28.077Z,71.6
2022-12-26T00:47:44.275Z,71.6
2022-12-26T00:49:01.181Z,71.6
2022-12-26T00:50:16.642Z,71.6
2022-12-26T00:51:33.545Z,71.6
2022-12-26T00:52:49.747Z,71.6
2022-12-26T00:54:05.219Z,71.5
2022-12-26T00:55:22.121Z,71.6
2022-12-26T00:56:37.584Z,71.5
2022-12-26T00:57:52.791Z,71.6
2022-12-26T00:59:08.992Z,71.6
2022-12-26T01:00:25.165Z,71.5
2022-12-26T01:01:41.360Z,71.5
2022-12-26T01:02:58.267Z,71.5
2022-12-26T01:04:13.749Z,71.5
2022-12-26T01:05:30.648Z,71.5
2022-12-26T01:06:45.873Z,71.5
2022-12-26T01:08:01.078Z,71.5
2022-12-26T01:09:17.263Z,71.5
2022-12-26T01:10:33.447Z,71.5
2022-12-26T01:11:49.637Z,71.5
2022-12-26T01:13:05.102Z,71.4
2022-12-26T01:14:21.289Z,71.4
2022-12-26T01:15:38.211Z,71.4
2022-12-26T01:16:53.662Z,71.5
2022-12-26T01:18:10.587Z,71.4
2022-12-26T01:19:26.777Z,71.5
2022-12-26T01:20:42.956Z,71.5
2022-12-26T01:21:59.145Z,71.5
2022-12-26T01:23:15.333Z,71.5
2022-12-26T01:24:30.543Z,71.5
2022-12-26T01:25:46.010Z,71.5
2022-12-26T01:27:02.934Z,71.4
2022-12-26T01:28:19.114Z,71.5
2022-12-26T01:29:35.315Z,71.5
2022-12-26T01:30:51.504Z,71.4
2022-12-26T01:32:07.680Z,71.5
2022-12-26T01:33:22.894Z,71.5
2022-12-26T01:34:38.109Z,71.4
2022-12-26T01:35:52.593Z,71.5
2022-12-26T01:37:08.529Z,71.4
2022-12-26T01:38:23.978Z,71.5
2022-12-26T01:39:40.181Z,71.5
2022-12-26T01:40:57.090Z,71.4
2022-12-26T01:42:13.285Z,71.4
2022-12-26T01:43:29.471Z,71.4
2022-12-26T01:44:44.928Z,71.4
2022-12-26T01:46:01.841Z,71.4
2022-12-26T01:47:17.312Z,71.4
2022-12-26T01:48:34.233Z,71.4
2022-12-26T01:49:50.425Z,71.4
2022-12-26T01:51:05.868Z,71.4
2022-12-26T01:52:22.072Z,71.4
2022-12-26T01:53:38.009Z,71.4
2022-12-26T01:54:53.457Z,71.4
2022-12-26T01:56:10.388Z,71.4
2022-12-26T01:57:26.581Z,71.4
2022-12-26T01:58:42.033Z,71.3
2022-12-26T01:59:58.959Z,71.4
2022-12-26T02:01:15.139Z,71.4
2022-12-26T02:02:29.612Z,71.4
2022-12-26T02:03:45.554Z,71.3
2022-12-26T02:05:00.779Z,71.4
2022-12-26T02:06:15.989Z,71.4
2022-12-26T02:07:32.169Z,71.4
2022-12-26T02:08:48.348Z,71.4
2022-12-26T02:10:03.822Z,71.3
2022-12-26T02:11:20.727Z,71.4
2022-12-26T02:12:36.193Z,71.3
2022-12-26T02:13:53.106Z,71.4
2022-12-26T02:15:09.303Z,71.4
2022-12-26T02:16:25.493Z,71.3
2022-12-26T02:17:40.942Z,71.4
2022-12-26T02:18:57.874Z,71.4
2022-12-26T02:20:14.053Z,71.4
2022-12-26T02:21:30.251Z,71.4
2022-12-26T02:22:45.464Z,71.3
2022-12-26T02:24:01.656Z,71.3
2022-12-26T02:25:17.096Z,71.3
2022-12-26T02:26:33.276Z,71.3
2022-12-26T02:27:50.211Z,71.3
2022-12-26T02:29:05.658Z,71.3
2022-12-26T02:30:22.600Z,71.3
2022-12-26T02:31:37.801Z,71.3
2022-12-26T02:32:52.279Z,71.4
2022-12-26T02:34:08.239Z,71.3
2022-12-26T02:35:22.691Z,71.3
2022-12-26T02:36:38.891Z,71.2
2022-12-26T02:37:54.848Z,71.2
2022-12-26T02:39:10.050Z,71.2
2022-12-26T02:40:25.491Z,71.3
2022-12-26T02:41:41.677Z,71.2
2022-12-26T02:42:57.863Z,71.2
2022-12-26T02:44:14.064Z,71.2
2022-12-26T02:45:30.251Z,71.2
2022-12-26T02:46:47.186Z,71.2
2022-12-26T02:48:02.621Z,71.3
2022-12-26T02:49:18.806Z,71.2
2022-12-26T02:50:35.741Z,71.3
2022-12-26T02:51:51.932Z,71.3
2022-12-26T02:53:07.374Z,71.2
2022-12-26T02:54:24.319Z,71.2
2022-12-26T02:55:38.768Z,71.2
2022-12-26T02:56:54.738Z,71.2
2022-12-26T02:58:10.914Z,71.2
2022-12-26T02:59:27.118Z,71.2
2022-12-26T03:00:43.296Z,71.2
2022-12-26T03:01:59.481Z,71.2
2022-12-26T03:03:15.682Z,71.2
2022-12-26T03:04:30.896Z,71.2
2022-12-26T03:05:45.352Z,71.2
2022-12-26T03:07:01.535Z,71.2
2022-12-26T03:08:17.502Z,71.2
2022-12-26T03:09:31.970Z,71.2
2022-12-26T03:10:48.906Z,71.2
2022-12-26T03:12:05.088Z,71.2
2022-12-26T03:13:21.284Z,71.2
2022-12-26T03:14:36.713Z,71.2
2022-12-26T03:15:53.655Z,71.2
2022-12-26T03:17:09.088Z,71.2
2022-12-26T03:18:25.283Z,71.2
2022-12-26T03:19:41.463Z,71.2
2022-12-26T03:20:58.421Z,71.2
2022-12-26T03:22:14.593Z,71.2
2022-12-26T03:23:30.795Z,71.2
2022-12-26T03:24:46.987Z,71.2
2022-12-26T03:26:01.424Z,71.2
2022-12-26T03:27:18.375Z,71.2
2022-12-26T03:28:34.557Z,71.2
2022-12-26T03:29:50.756Z,71.2
2022-12-26T03:31:06.187Z,71.2
2022-12-26T03:32:22.385Z,71.2
2022-12-26T03:33:38.561Z,71.2
2022-12-26T03:34:54.547Z,71.2
2022-12-26T03:36:09.735Z,71.2
2022-12-26T03:37:25.930Z,71.2
2022-12-26T03:38:42.126Z,71.2
2022-12-26T03:39:58.308Z,71.2
2022-12-26T03:41:13.742Z,71.2
2022-12-26T03:42:30.687Z,71.2
2022-12-26T03:43:46.130Z,71.2
2022-12-26T03:45:02.323Z,71.2
2022-12-26T03:46:19.250Z,71.2
2022-12-26T03:47:35.455Z,71.2
2022-12-26T03:48:51.628Z,71.2
2022-12-26T03:50:07.832Z,71.2
2022-12-26T03:51:24.023Z,71.2
2022-12-26T03:52:38.467Z,71.2
2022-12-26T03:53:55.405Z,71.2
2022-12-26T03:55:10.842Z,71.2
2022-12-26T03:56:27.023Z,71.2
2022-12-26T03:57:43.971Z,71.2
2022-12-26T03:59:00.168Z,71.2
2022-12-26T04:00:16.349Z,71.2
2022-12-26T04:01:31.563Z,71.2
2022-12-26T04:02:46.026Z,71.2
2022-12-26T04:04:01.994Z,71.2
2022-12-26T04:05:17.194Z,71.2
2022-12-26T04:07:48.609Z,71.1
2022-12-26T04:09:03.824Z,71.1
2022-12-26T04:10:19.035Z,71.1
2022-12-26T04:11:34.462Z,71.1
2022-12-26T04:12:50.649Z,71.1
2022-12-26T04:14:07.595Z,71.2
2022-12-26T04:15:23.784Z,71.1
2022-12-26T04:16:39.964Z,71.1
2022-12-26T04:17:56.155Z,71.1
2022-12-26T04:19:12.355Z,71.1
2022-12-26T04:20:28.534Z,71.1
2022-12-26T04:21:43.973Z,71.2
2022-12-26T04:23:00.157Z,71.2
2022-12-26T04:24:17.111Z,71.1
2022-12-26T04:25:32.534Z,71.1
2022-12-26T04:26:47.744Z,71.1
2022-12-26T04:28:04.696Z,71.1
2022-12-26T04:29:20.876Z,71.1
2022-12-26T04:30:37.061Z,71.1
2022-12-26T04:31:53.259Z,71.1
2022-12-26T04:33:09.445Z,71.1
2022-12-26T04:34:25.647Z,71.1
2022-12-26T04:35:40.093Z,71.1
2022-12-26T04:36:56.053Z,71.1
2022-12-26T04:38:12.259Z,71.1
2022-12-26T04:39:26.700Z,71
2022-12-26T04:40:42.675Z,71.1
2022-12-26T04:41:58.095Z,71
2022-12-26T04:43:14.290Z,71
2022-12-26T04:44:31.235Z,71
2022-12-26T04:45:47.419Z,71
2022-12-26T04:47:03.626Z,71.1
2022-12-26T04:48:19.039Z,71.1
2022-12-26T04:49:35.232Z,71.1
2022-12-26T04:50:51.411Z,71.1
2022-12-26T04:52:08.379Z,71.1
2022-12-26T04:53:24.554Z,71.1
2022-12-26T04:54:40.758Z,71.1
2022-12-26T04:55:56.932Z,71.1
2022-12-26T04:57:12.156Z,71.1
2022-12-26T04:58:28.338Z,71.1
2022-12-26T04:59:43.756Z,71.1
2022-12-26T05:01:00.718Z,71.1
2022-12-26T05:02:16.126Z,71.1
2022-12-26T05:03:33.102Z,71.1
2022-12-26T05:04:48.519Z,71.1
2022-12-26T05:06:04.491Z,71.1
2022-12-26T05:07:18.940Z,71
2022-12-26T05:08:35.888Z,71
2022-12-26T05:09:51.109Z,71
2022-12-26T05:11:05.530Z,71
2022-12-26T05:12:21.727Z,71
2022-12-26T05:13:38.685Z,71
2022-12-26T05:14:54.893Z,71
2022-12-26T05:16:11.065Z,71
2022-12-26T05:17:26.488Z,71.1
2022-12-26T05:18:43.456Z,71.1
2022-12-26T05:19:59.642Z,71
2022-12-26T05:21:15.837Z,71.1
2022-12-26T05:22:32.016Z,71.1
2022-12-26T05:23:47.421Z,71.1
2022-12-26T05:25:04.387Z,71.1
2022-12-26T05:26:20.577Z,71.1
2022-12-26T05:27:35.782Z,71.1
2022-12-26T05:28:51.980Z,71.1
2022-12-26T05:30:07.395Z,71
2022-12-26T05:31:24.368Z,71.1
2022-12-26T05:32:39.773Z,71.1
2022-12-26T05:33:56.745Z,71.1
2022-12-26T05:35:12.156Z,71.1
2022-12-26T05:36:28.145Z,71.1
2022-12-26T05:37:43.354Z,71.1
2022-12-26T05:38:58.750Z,71.1
2022-12-26T05:40:15.724Z,71.1
2022-12-26T05:41:30.933Z,71.1
2022-12-26T05:42:46.147Z,71.1
2022-12-26T05:44:02.346Z,71.1
2022-12-26T05:45:18.530Z,71.1
2022-12-26T05:46:34.713Z,71.1
2022-12-26T05:47:50.132Z,71.1
2022-12-26T05:49:07.090Z,71.1
2022-12-26T05:50:22.493Z,71.1
2022-12-26T05:52:55.668Z,71.1
2022-12-26T05:54:11.848Z,71.1
2022-12-26T05:55:27.250Z,71.1
2022-12-26T05:56:44.232Z,71.1
2022-12-26T05:58:00.425Z,71.1
2022-12-26T05:59:15.623Z,71.1
2022-12-26T06:00:31.817Z,71.1
2022-12-26T06:01:48.000Z,71.1
2022-12-26T06:03:04.199Z,71.1
2022-12-26T06:04:19.598Z,71
2022-12-26T06:05:35.792Z,71
2022-12-26T06:06:52.769Z,71
2022-12-26T06:08:08.958Z,71
2022-12-26T06:09:24.165Z,71
2022-12-26T06:10:39.374Z,71.1
2022-12-26T06:11:55.566Z,71.1
2022-12-26T06:13:10.959Z,71
2022-12-26T06:14:27.934Z,71
2022-12-26T06:15:44.141Z,70.9
2022-12-26T06:17:00.317Z,71
2022-12-26T06:18:15.724Z,70.9
2022-12-26T06:19:32.690Z,71
2022-12-26T06:20:48.086Z,71
2022-12-26T06:22:05.064Z,71
2022-12-26T06:23:21.260Z,70.9
2022-12-26T06:24:37.459Z,71
2022-12-26T06:25:53.648Z,71
2022-12-26T06:27:08.844Z,71
2022-12-26T06:28:24.243Z,71
2022-12-26T06:29:40.443Z,70.9
2022-12-26T06:30:57.419Z,70.9
2022-12-26T06:32:13.608Z,70.9
2022-12-26T06:33:29.790Z,70.9
2022-12-26T06:34:45.975Z,70.9
2022-12-26T06:36:00.408Z,70.9
2022-12-26T06:37:16.407Z,70.9
2022-12-26T06:38:31.623Z,70.9
2022-12-26T06:39:46.040Z,70.9
2022-12-26T06:41:02.052Z,70.9
2022-12-26T06:42:16.463Z,70.9
2022-12-26T06:43:32.645Z,70.9
2022-12-26T06:44:49.641Z,70.9
2022-12-26T06:46:05.817Z,70.9
2022-12-26T06:47:21.999Z,70.9
2022-12-26T06:48:37.392Z,70.9
2022-12-26T06:49:54.382Z,70.9
2022-12-26T06:51:10.576Z,70.9
2022-12-26T06:52:26.759Z,70.9
2022-12-26T06:53:42.960Z,70.9
2022-12-26T06:54:58.350Z,70.9
2022-12-26T06:56:15.340Z,70.9
2022-12-26T06:57:31.512Z,70.9
2022-12-26T06:58:45.928Z,71
2022-12-26T07:00:02.924Z,71
2022-12-26T07:01:19.097Z,71
2022-12-26T07:02:35.294Z,70.9
2022-12-26T07:03:51.483Z,70.9
2022-12-26T07:05:06.868Z,70.9
2022-12-26T07:06:23.062Z,70.9
2022-12-26T07:07:39.075Z,70.9
2022-12-26T07:08:53.485Z,70.9
2022-12-26T07:10:10.464Z,70.9
2022-12-26T07:11:24.896Z,70.9
2022-12-26T07:12:40.096Z,70.9
2022-12-26T07:13:56.297Z,70.9
2022-12-26T07:15:13.276Z,70.9
2022-12-26T07:16:29.470Z,70.9
2022-12-26T07:17:45.656Z,70.9
2022-12-26T07:19:01.848Z,70.9
2022-12-26T07:20:17.242Z,70.9
2022-12-26T07:21:33.420Z,70.9
2022-12-26T07:22:50.418Z,70.8
2022-12-26T07:24:05.797Z,70.9
2022-12-26T07:25:22.803Z,70.9
2022-12-26T07:26:38.987Z,70.9
2022-12-26T07:27:54.378Z,70.9
2022-12-26T07:29:10.391Z,70.9
2022-12-26T07:30:26.565Z,70.9
2022-12-26T07:31:41.958Z,70.9
2022-12-26T07:32:58.148Z,70.9
2022-12-26T07:34:15.141Z,70.8
2022-12-26T07:35:31.324Z,70.8
2022-12-26T07:36:46.706Z,70.9
2022-12-26T07:38:02.737Z,70.9
2022-12-26T07:39:17.931Z,70.9
2022-12-26T07:40:34.131Z,70.8
2022-12-26T07:41:49.346Z,70.8
2022-12-26T07:43:03.738Z,70.8
2022-12-26T07:44:19.937Z,70.8
2022-12-26T07:45:36.110Z,70.9
2022-12-26T07:46:53.121Z,70.8
2022-12-26T07:48:08.499Z,70.7
2022-12-26T07:49:25.491Z,70.8
2022-12-26T07:50:41.693Z,70.8
2022-12-26T07:51:57.882Z,70.7
2022-12-26T07:53:14.058Z,70.7
2022-12-26T07:54:30.250Z,70.7
2022-12-26T07:55:46.445Z,70.7
2022-12-26T07:57:02.635Z,70.7
2022-12-26T07:58:18.010Z,70.7
2022-12-26T07:59:33.219Z,70.7
2022-12-26T08:00:50.220Z,70.7
2022-12-26T08:02:05.591Z,70.5
2022-12-26T08:03:22.584Z,70.5
2022-12-26T08:04:38.777Z,70.5
2022-12-26T08:05:54.966Z,70.5
2022-12-26T08:07:10.345Z,70.5
2022-12-26T08:08:25.561Z,70.5
2022-12-26T08:09:41.584Z,70.5
2022-12-26T08:10:56.954Z,70.5
2022-12-26T08:12:13.141Z,70.5
2022-12-26T08:13:29.172Z,70.5
2022-12-26T08:14:44.386Z,70.5
2022-12-26T08:16:00.568Z,70.5
2022-12-26T08:17:16.769Z,70.5
2022-12-26T08:18:32.947Z,70.5
2022-12-26T08:19:49.148Z,70.5
2022-12-26T08:21:04.519Z,70.5
2022-12-26T08:22:21.517Z,70.5
2022-12-26T08:23:36.890Z,70.5
2022-12-26T08:24:53.908Z,70.5
2022-12-26T08:26:09.267Z,70.5
2022-12-26T08:27:26.274Z,70.3
2022-12-26T08:28:42.461Z,70.3
2022-12-26T08:29:57.836Z,70.3
2022-12-26T08:31:13.861Z,70.3
2022-12-26T08:32:29.222Z,70.3
2022-12-26T08:33:46.235Z,70.3
2022-12-26T08:35:01.604Z,70.3
2022-12-26T08:36:17.798Z,70.3
2022-12-26T08:37:33.987Z,70.3
2022-12-26T08:38:50.996Z,70.3
2022-12-26T08:40:06.206Z,70.3
2022-12-26T08:41:21.424Z,70.2
2022-12-26T08:42:36.622Z,70.3
2022-12-26T08:43:51.008Z,70.3
2022-12-26T08:45:07.201Z,70.3
2022-12-26T08:46:24.221Z,70.2
2022-12-26T08:47:40.413Z,70.2
2022-12-26T08:48:55.775Z,70.2
2022-12-26T08:50:11.951Z,70.1
2022-12-26T08:51:28.961Z,70.2
2022-12-26T08:52:44.327Z,70.1
2022-12-26T08:54:01.341Z,70.1
2022-12-26T08:55:17.528Z,70.1
2022-12-26T08:56:33.720Z,70.1
2022-12-26T08:57:49.919Z,70.1
2022-12-26T08:59:06.107Z,70.1
2022-12-26T09:00:21.302Z,70.1
2022-12-26T09:01:36.663Z,70.1
2022-12-26T09:02:53.680Z,70.1
2022-12-26T09:04:09.863Z,70.2
2022-12-26T09:05:26.046Z,70.2
2022-12-26T09:06:42.240Z,70.1
2022-12-26T09:07:57.594Z,70.1
2022-12-26T09:09:12.813Z,70.1
2022-12-26T09:10:28.029Z,70.1
2022-12-26T09:11:45.040Z,70
2022-12-26T09:13:00.241Z,70
2022-12-26T09:14:14.631Z,70
2022-12-26T09:15:30.823Z,70
2022-12-26T09:16:47.829Z,70
2022-12-26T09:18:04.006Z,70
2022-12-26T09:19:20.199Z,70
2022-12-26T09:20:36.379Z,70
2022-12-26T09:21:52.566Z,70
2022-12-26T09:23:08.762Z,70
2022-12-26T09:24:24.119Z,70.1
2022-12-26T09:25:41.141Z,70
2022-12-26T09:26:56.495Z,70
2022-12-26T09:28:12.686Z,70
2022-12-26T09:29:29.696Z,70
2022-12-26T09:30:44.063Z,70
2022-12-26T09:32:01.088Z,70
2022-12-26T09:33:17.274Z,70
2022-12-26T09:34:33.471Z,70
2022-12-26T09:35:49.659Z,69.9
2022-12-26T09:37:05.848Z,69.9
2022-12-26T09:38:21.203Z,69.9
2022-12-26T09:39:36.399Z,69.9
2022-12-26T09:40:52.444Z,69.9
2022-12-26T09:42:08.623Z,69.9
2022-12-26T09:43:23.270Z,69.9
2022-12-26T09:44:39.047Z,69.9
2022-12-26T09:45:54.662Z,69.9
2022-12-26T09:47:10.856Z,69.9
2022-12-26T09:48:27.601Z,69.8
2022-12-26T09:49:43.230Z,69.8
2022-12-26T09:50:59.990Z,69.8
2022-12-26T09:52:16.181Z,69.7
2022-12-26T09:53:31.782Z,69.7
2022-12-26T09:54:48.554Z,69.7
2022-12-26T09:56:04.734Z,69.7
2022-12-26T09:57:20.931Z,69.7
2022-12-26T09:58:37.112Z,69.7
2022-12-26T09:59:52.734Z,69.7
2022-12-26T10:01:07.928Z,69.6
2022-12-26T10:02:24.692Z,69.6
2022-12-26T10:03:40.299Z,69.7
2022-12-26T10:04:56.485Z,69.7
2022-12-26T10:06:12.673Z,69.7
2022-12-26T10:07:29.448Z,69.8
2022-12-26T10:08:45.619Z,69.9
2022-12-26T10:10:00.835Z,69.9
2022-12-26T10:11:15.465Z,69.9
2022-12-26T10:12:32.222Z,69.9
2022-12-26T10:13:46.867Z,69.9
2022-12-26T10:15:02.648Z,69.9
2022-12-26T10:16:18.838Z,69.8
2022-12-26T10:17:34.440Z,69.8
2022-12-26T10:18:50.627Z,69.8
2022-12-26T10:20:07.000Z,69.7
2022-12-26T10:21:23.584Z,69.7
2022-12-26T10:22:39.774Z,69.7
2022-12-26T10:23:55.389Z,69.6
2022-12-26T10:25:12.143Z,69.6
2022-12-26T10:26:28.339Z,69.6
2022-12-26T10:27:44.514Z,69.6
2022-12-26T10:29:00.139Z,69.6
2022-12-26T10:30:16.900Z,69.6
2022-12-26T10:31:32.101Z,69.6
2022-12-26T10:32:48.298Z,69.6
2022-12-26T10:34:04.485Z,69.6
2022-12-26T10:35:20.672Z,69.6
2022-12-26T10:36:36.861Z,69.6
2022-12-26T10:37:53.042Z,69.6
2022-12-26T10:39:08.653Z,69.7
2022-12-26T10:40:23.851Z,69.7
2022-12-26T10:41:39.636Z,69.7
2022-12-26T10:42:54.283Z,69.8
2022-12-26T10:44:10.070Z,69.7
2022-12-26T10:45:26.253Z,69.8
2022-12-26T10:46:41.850Z,69.8
2022-12-26T10:47:58.613Z,69.8
2022-12-26T10:49:14.805Z,69.8
2022-12-26T10:50:30.419Z,69.8
2022-12-26T10:51:47.177Z,69.8
2022-12-26T10:53:03.378Z,69.7
2022-12-26T10:54:18.979Z,69.8
2022-12-26T10:55:35.161Z,69.7
2022-12-26T10:56:51.937Z,69.8
2022-12-26T10:58:08.124Z,69.8
2022-12-26T10:59:24.316Z,69.8
2022-12-26T11:00:39.523Z,69.8
2022-12-26T11:01:55.114Z,69.8
2022-12-26T11:03:11.897Z,69.8
2022-12-26T11:04:28.084Z,69.8
2022-12-26T11:05:44.254Z,69.9
2022-12-26T11:07:00.448Z,69.8
2022-12-26T11:08:16.631Z,69.8
2022-12-26T11:09:31.842Z,69.8
2022-12-26T11:10:47.049Z,69.7
2022-12-26T11:12:03.239Z,69.7
2022-12-26T11:13:19.436Z,69.8
2022-12-26T11:14:35.609Z,69.7
2022-12-26T11:15:51.802Z,69.7
2022-12-26T11:17:07.992Z,69.7
2022-12-26T11:18:24.184Z,69.8
2022-12-26T11:19:40.362Z,69.8
2022-12-26T11:20:56.560Z,69.7
2022-12-26T11:22:12.145Z,69.7
2022-12-26T11:23:28.931Z,69.7
2022-12-26T11:24:45.110Z,69.8
2022-12-26T11:26:00.333Z,69.8
2022-12-26T11:27:16.503Z,69.8
2022-12-26T11:28:32.694Z,69.8
2022-12-26T11:29:48.884Z,69.8
2022-12-26T11:31:05.072Z,69.7
2022-12-26T11:32:20.671Z,69.7
2022-12-26T11:33:36.857Z,69.8
2022-12-26T11:34:53.645Z,69.9
2022-12-26T11:36:08.841Z,69.8
2022-12-26T11:37:24.061Z,69.8
2022-12-26T11:38:40.238Z,69.8
2022-12-26T11:39:56.430Z,69.9
2022-12-26T11:41:12.613Z,69.9
2022-12-26T11:42:28.805Z,69.8
2022-12-26T11:43:45.001Z,69.8
2022-12-26T11:45:01.174Z,69.9
2022-12-26T11:46:16.773Z,69.8
2022-12-26T11:47:32.950Z,69.8
2022-12-26T11:48:49.750Z,69.8
2022-12-26T11:50:05.923Z,69.9
2022-12-26T11:51:22.120Z,69.8
2022-12-26T11:52:38.313Z,69.8
2022-12-26T11:53:53.504Z,69.8
2022-12-26T11:55:09.090Z,69.7
2022-12-26T11:56:25.888Z,69.7
2022-12-26T11:57:42.061Z,69.8
2022-12-26T11:58:57.658Z,69.8
2022-12-26T12:00:13.842Z,69.7
2022-12-26T12:01:30.639Z,69.7
2022-12-26T12:02:45.240Z,69.8
2022-12-26T12:04:01.046Z,69.7
2022-12-26T12:05:15.656Z,69.8
2022-12-26T12:06:32.445Z,69.8
2022-12-26T12:07:47.654Z,69.7
2022-12-26T12:09:02.867Z,69.8
2022-12-26T12:10:18.457Z,69.8
2022-12-26T12:11:34.645Z,69.7
2022-12-26T12:12:51.426Z,69.7
2022-12-26T12:14:07.607Z,69.8
2022-12-26T12:15:23.206Z,69.8
2022-12-26T12:16:39.391Z,69.8
2022-12-26T12:17:55.580Z,69.8
2022-12-26T12:19:11.765Z,69.8
2022-12-26T12:20:28.550Z,69.8
2022-12-26T12:21:44.743Z,69.8
2022-12-26T12:23:00.319Z,69.8
2022-12-26T12:24:16.502Z,69.8
2022-12-26T12:25:31.721Z,69.8
2022-12-26T12:26:48.503Z,69.8
2022-12-26T12:28:04.683Z,69.8
2022-12-26T12:29:20.872Z,69.9
2022-12-26T12:30:36.464Z,69.9
2022-12-26T12:31:52.638Z,69.9
2022-12-26T12:33:09.447Z,69.9
2022-12-26T12:34:24.646Z,70
2022-12-26T12:35:39.854Z,70
2022-12-26T12:36:54.458Z,70
2022-12-26T12:38:10.282Z,70
2022-12-26T12:39:26.460Z,69.9
2022-12-26T12:40:42.651Z,70
2022-12-26T12:41:58.832Z,70
2022-12-26T12:43:14.428Z,70
2022-12-26T12:44:31.221Z,70
2022-12-26T12:45:47.395Z,70
2022-12-26T12:47:03.596Z,70
2022-12-26T12:48:19.157Z,70
2022-12-26T12:49:35.355Z,70
2022-12-26T12:50:52.141Z,69.9
2022-12-26T12:52:08.328Z,69.9
2022-12-26T12:53:23.906Z,69.8
2022-12-26T12:54:39.724Z,69.9
2022-12-26T12:55:55.918Z,69.8
2022-12-26T12:57:12.105Z,69.8
2022-12-26T12:58:28.295Z,69.8
2022-12-26T12:59:44.468Z,69.8
2022-12-26T13:01:00.057Z,69.8
2022-12-26T13:02:16.233Z,69.9
2022-12-26T13:03:31.452Z,69.8
2022-12-26T13:04:47.272Z,69.9
2022-12-26T13:06:02.482Z,69.8
2022-12-26T13:07:17.692Z,69.8
2022-12-26T13:08:32.282Z,69.8
2022-12-26T13:09:48.112Z,69.7
2022-12-26T13:11:03.677Z,69.8
2022-12-26T13:12:19.862Z,69.8
2022-12-26T13:13:36.665Z,69.8
2022-12-26T13:14:52.238Z,69.8
2022-12-26T13:16:09.049Z,69.8
2022-12-26T13:17:25.217Z,69.9
2022-12-26T13:18:40.802Z,69.9
2022-12-26T13:19:57.600Z,69.9
2022-12-26T13:21:13.171Z,69.9
2022-12-26T13:22:29.000Z,69.8
2022-12-26T13:23:45.548Z,69.8
2022-12-26T13:25:02.359Z,69.8
2022-12-26T13:26:17.563Z,69.8
2022-12-26T13:27:33.740Z,69.8
2022-12-26T13:28:49.932Z,69.8
2022-12-26T13:30:05.498Z,69.8
2022-12-26T13:31:21.685Z,69.8
2022-12-26T13:32:37.864Z,69.8
2022-12-26T13:33:54.061Z,69.7
2022-12-26T13:35:09.903Z,69.7
2022-12-26T13:36:25.097Z,69.7
2022-12-26T13:37:40.321Z,69.8
2022-12-26T13:38:54.887Z,69.7
2022-12-26T13:40:11.075Z,69.7
2022-12-26T13:41:27.887Z,69.7
2022-12-26T13:42:44.082Z,69.8
2022-12-26T13:44:00.273Z,69.8
2022-12-26T13:45:16.445Z,69.8
2022-12-26T13:46:32.640Z,69.8
2022-12-26T13:47:48.821Z,69.8
2022-12-26T13:49:05.012Z,69.9
2022-12-26T13:50:21.216Z,69.9
2022-12-26T13:51:37.392Z,69.8
2022-12-26T13:52:52.943Z,69.8
2022-12-26T13:54:09.141Z,69.8
2022-12-26T13:55:24.975Z,69.8
2022-12-26T13:56:41.154Z,69.9
2022-12-26T13:57:57.345Z,69.9
2022-12-26T13:59:13.528Z,69.9
2022-12-26T14:00:29.716Z,69.9
2022-12-26T14:01:45.912Z,69.9
2022-12-26T14:03:02.089Z,69.9
2022-12-26T14:04:17.313Z,69.9
2022-12-26T14:05:32.502Z,69.9
2022-12-26T14:06:47.097Z,70
2022-12-26T14:08:02.920Z,69.9
2022-12-26T14:09:19.129Z,69.9
2022-12-26T14:10:34.664Z,70
2022-12-26T14:11:51.485Z,70
2022-12-26T14:13:07.678Z,70
2022-12-26T14:14:23.865Z,70
2022-12-26T14:15:40.042Z,70
2022-12-26T14:16:56.238Z,70.1
2022-12-26T14:18:11.791Z,70.1
2022-12-26T14:19:27.981Z,70.1
2022-12-26T14:20:44.801Z,70.1
2022-12-26T14:22:00.992Z,70.2
2022-12-26T14:23:16.551Z,70.2
2022-12-26T14:24:32.385Z,70.1
2022-12-26T14:25:48.557Z,70.2
2022-12-26T14:27:04.124Z,70.2
2022-12-26T14:28:20.941Z,70.1
2022-12-26T14:29:37.123Z,70.2
2022-12-26T14:30:52.687Z,70.2
2022-12-26T14:32:09.506Z,70.2
2022-12-26T14:33:24.721Z,70.2
2022-12-26T14:34:39.292Z,70.2
2022-12-26T14:35:56.107Z,70.2
2022-12-26T14:37:12.297Z,70.3
2022-12-26T14:38:28.480Z,70.2
2022-12-26T14:39:44.670Z,70.2
2022-12-26T14:41:00.867Z,70.2
2022-12-26T14:42:17.042Z,70.2
2022-12-26T14:43:32.598Z,70.2
2022-12-26T14:44:49.427Z,70.2
2022-12-26T14:46:05.602Z,70.3
2022-12-26T14:47:21.797Z,70.2
2022-12-26T14:48:37.345Z,70.2
2022-12-26T14:49:53.540Z,70.2
2022-12-26T14:51:09.378Z,70.2
2022-12-26T14:52:25.553Z,70.2
2022-12-26T14:53:41.741Z,70.2
2022-12-26T14:54:57.926Z,70.3
2022-12-26T14:56:13.489Z,70.3
2022-12-26T14:57:30.310Z,70.3
2022-12-26T14:58:46.492Z,70.3
2022-12-26T15:00:01.705Z,70.3
2022-12-26T15:01:16.905Z,70.3
2022-12-26T15:02:32.137Z,70.3
2022-12-26T15:03:46.690Z,70.3
2022-12-26T15:05:02.873Z,70.3
2022-12-26T15:06:19.071Z,70.3
2022-12-26T15:07:35.244Z,70.3
2022-12-26T15:08:51.435Z,70.3
2022-12-26T15:10:07.626Z,70.3
2022-12-26T15:11:23.808Z,70.3
2022-12-26T15:12:40.649Z,70.3
2022-12-26T15:13:56.823Z,70.3
2022-12-26T15:15:12.369Z,70.3
2022-12-26T15:16:29.211Z,70.3
2022-12-26T15:17:45.387Z,70.5
2022-12-26T15:19:00.945Z,70.5
2022-12-26T15:20:16.787Z,70.3
2022-12-26T15:21:32.324Z,70.3
2022-12-26T15:22:49.157Z,70.5
2022-12-26T15:24:05.350Z,70.3
2022-12-26T15:25:21.540Z,70.3
2022-12-26T15:26:37.729Z,70.5
2022-12-26T15:27:53.257Z,70.3
2022-12-26T15:29:09.127Z,70.5
2022-12-26T15:30:24.317Z,70.3
2022-12-26T15:31:39.548Z,70.5
2022-12-26T15:32:54.107Z,70.3
2022-12-26T15:34:10.929Z,70.5
2022-12-26T15:35:27.117Z,70.5
2022-12-26T15:36:43.299Z,70.5
2022-12-26T15:37:58.849Z,70.5
2022-12-26T15:39:15.689Z,70.5
2022-12-26T15:40:30.889Z,70.5
2022-12-26T15:41:47.069Z,70.5
2022-12-26T15:43:02.615Z,70.5
2022-12-26T15:44:19.446Z,70.5
2022-12-26T15:45:35.644Z,70.5
2022-12-26T15:46:51.822Z,70.5
2022-12-26T15:48:08.012Z,70.5
2022-12-26T15:49:24.201Z,70.5
2022-12-26T15:50:39.738Z,70.5
2022-12-26T15:51:55.925Z,70.5
2022-12-26T15:53:12.762Z,70.5
2022-12-26T15:54:28.949Z,70.5
2022-12-26T15:55:44.487Z,70.5
2022-12-26T15:57:00.341Z,70.5
2022-12-26T15:58:14.912Z,70.5
2022-12-26T15:59:30.109Z,70.5
2022-12-26T16:00:46.289Z,70.5
2022-12-26T16:02:02.482Z,70.5
2022-12-26T16:03:18.355Z,70.5
2022-12-26T16:04:33.549Z,70.5
2022-12-26T16:05:49.082Z,70.5
2022-12-26T16:07:05.930Z,70.5
2022-12-26T16:08:22.108Z,70.5
2022-12-26T16:09:38.291Z,70.5
2022-12-26T16:10:54.495Z,70.5
2022-12-26T16:12:10.019Z,70.5
2022-12-26T16:13:26.855Z,70.7
2022-12-26T16:14:42.396Z,70.7
2022-12-26T16:15:59.234Z,70.5
2022-12-26T16:17:15.422Z,70.5
2022-12-26T16:18:30.951Z,70.7
2022-12-26T16:19:47.135Z,70.8
2022-12-26T16:21:02.356Z,70.7
2022-12-26T16:22:19.191Z,70.7
2022-12-26T16:23:34.713Z,70.8
2022-12-26T16:24:50.899Z,70.7
2022-12-26T16:26:07.749Z,70.7
2022-12-26T16:27:23.943Z,70.7
2022-12-26T16:28:39.472Z,70.8
2022-12-26T16:29:55.337Z,70.7
2022-12-26T16:31:10.550Z,70.5
2022-12-26T16:32:26.735Z,70.5
2022-12-26T16:33:42.931Z,70.7
2022-12-26T16:34:59.116Z,70.7
2022-12-26T16:36:14.632Z,70.7
2022-12-26T16:37:30.000Z,70.7
2022-12-26T16:38:47.675Z,70.5
2022-12-26T16:40:03.860Z,70.5
2022-12-26T16:41:20.044Z,70.7
2022-12-26T16:42:36.224Z,70.8
2022-12-26T16:43:51.754Z,70.5
2022-12-26T16:45:08.602Z,70.7
2022-12-26T16:46:24.790Z,70.5
2022-12-26T16:47:40.001Z,70.5
2022-12-26T16:48:56.195Z,70.5
2022-12-26T16:50:12.363Z,70.5
2022-12-26T16:51:27.889Z,70.7
2022-12-26T16:52:44.756Z,70.5
2022-12-26T16:54:00.941Z,70.8
2022-12-26T16:55:17.126Z,70.8
2022-12-26T16:56:32.342Z,70.8
2022-12-26T16:57:47.546Z,70.7
2022-12-26T16:59:03.060Z,70.5
2022-12-26T17:00:19.922Z,70.7